sensor_id;sensor_type;location;lat;lon;timestamp;P1;durP1;ratioP1;P2;durP2;ratioP2
19854;SDS011;10088;47.946;2.532;2024-01-15T00:02:00;40.57;;;14.57;;
19854;SDS011;10088;47.946;2.532;2024-01-15T00:04:26;37.73;;;14.80;;
19854;SDS011;10088;47.946;2.532;2024-01-15T00:06:51;35.13;;;13.57;;
19854;SDS011;10088;47.946;2.532;2024-01-15T00:09:16;45.07;;;13.87;;
19854;SDS011;10088;47.946;2.532;2024-01-15T00:11:42;41.50;;;15.13;;
19854;SDS011;10088;47.946;2.532;2024-01-15T00:14:08;39.53;;;15.03;;
19854;SDS011;10088;47.946;2.532;2024-01-15T00:16:33;35.50;;;12.87;;
19854;SDS011;10088;47.946;2.532;2024-01-15T00:18:58;36.83;;;13.57;;
19854;SDS011;10088;47.946;2.532;2024-01-15T00:21:23;42.37;;;15.70;;
19854;SDS011;10088;47.946;2.532;2024-01-15T00:23:49;41.97;;;14.77;;
19854;SDS011;10088;47.946;2.532;2024-01-15T00:26:14;38.20;;;14.57;;
19854;SDS011;10088;47.946;2.532;2024-01-15T00:28:40;39.27;;;14.77;;
19854;SDS011;10088;47.946;2.532;2024-01-15T00:31:05;43.27;;;15.43;;
19854;SDS011;10088;47.946;2.532;2024-01-15T00:33:31;46.37;;;16.77;;
19854;SDS011;10088;47.946;2.532;2024-01-15T00:35:56;41.87;;;17.03;;
19854;SDS011;10088;47.946;2.532;2024-01-15T00:38:21;43.80;;;15.93;;
19854;SDS011;10088;47.946;2.532;2024-01-15T00:40:47;50.17;;;17.37;;
19854;SDS011;10088;47.946;2.532;2024-01-15T00:43:12;41.03;;;15.17;;
19854;SDS011;10088;47.946;2.532;2024-01-15T00:45:37;55.57;;;22.67;;
19854;SDS011;10088;47.946;2.532;2024-01-15T00:48:03;49.07;;;16.47;;
19854;SDS011;10088;47.946;2.532;2024-01-15T00:50:28;46.40;;;16.27;;
19854;SDS011;10088;47.946;2.532;2024-01-15T00:52:54;51.50;;;16.77;;
19854;SDS011;10088;47.946;2.532;2024-01-15T00:55:19;41.43;;;16.93;;
19854;SDS011;10088;47.946;2.532;2024-01-15T00:57:44;56.53;;;18.83;;
19854;SDS011;10088;47.946;2.532;2024-01-15T01:00:10;49.50;;;19.37;;
19854;SDS011;10088;47.946;2.532;2024-01-15T01:02:35;48.43;;;17.30;;
19854;SDS011;10088;47.946;2.532;2024-01-15T01:05:00;42.57;;;17.30;;
19854;SDS011;10088;47.946;2.532;2024-01-15T01:07:26;45.00;;;17.33;;
19854;SDS011;10088;47.946;2.532;2024-01-15T01:09:51;47.23;;;16.90;;
19854;SDS011;10088;47.946;2.532;2024-01-15T01:12:16;52.87;;;17.57;;
19854;SDS011;10088;47.946;2.532;2024-01-15T01:14:42;51.93;;;19.17;;
19854;SDS011;10088;47.946;2.532;2024-01-15T01:17:07;41.67;;;17.40;;
19854;SDS011;10088;47.946;2.532;2024-01-15T01:19:32;44.70;;;17.50;;
19854;SDS011;10088;47.946;2.532;2024-01-15T01:21:58;44.67;;;17.37;;
19854;SDS011;10088;47.946;2.532;2024-01-15T01:24:23;45.30;;;17.57;;
19854;SDS011;10088;47.946;2.532;2024-01-15T01:26:48;48.77;;;18.30;;
19854;SDS011;10088;47.946;2.532;2024-01-15T01:29:14;44.23;;;17.93;;
19854;SDS011;10088;47.946;2.532;2024-01-15T01:31:45;37.07;;;15.60;;
19854;SDS011;10088;47.946;2.532;2024-01-15T01:34:13;41.70;;;16.63;;
19854;SDS011;10088;47.946;2.532;2024-01-15T01:36:38;42.10;;;13.77;;
19854;SDS011;10088;47.946;2.532;2024-01-15T01:39:04;44.83;;;18.10;;
19854;SDS011;10088;47.946;2.532;2024-01-15T01:41:29;41.30;;;17.00;;
19854;SDS011;10088;47.946;2.532;2024-01-15T01:43:54;53.70;;;17.70;;
19854;SDS011;10088;47.946;2.532;2024-01-15T01:46:20;56.47;;;14.67;;
19854;SDS011;10088;47.946;2.532;2024-01-15T01:48:45;34.30;;;13.70;;
19854;SDS011;10088;47.946;2.532;2024-01-15T01:51:11;35.60;;;15.70;;
19854;SDS011;10088;47.946;2.532;2024-01-15T01:53:36;32.00;;;10.10;;
19854;SDS011;10088;47.946;2.532;2024-01-15T01:56:02;40.30;;;13.77;;
19854;SDS011;10088;47.946;2.532;2024-01-15T01:58:28;30.77;;;11.60;;
19854;SDS011;10088;47.946;2.532;2024-01-15T02:00:53;31.13;;;12.47;;
19854;SDS011;10088;47.946;2.532;2024-01-15T02:03:19;27.33;;;13.00;;
19854;SDS011;10088;47.946;2.532;2024-01-15T02:05:44;40.20;;;14.27;;
19854;SDS011;10088;47.946;2.532;2024-01-15T02:08:10;29.97;;;14.53;;
19854;SDS011;10088;47.946;2.532;2024-01-15T02:10:36;31.70;;;11.53;;
19854;SDS011;10088;47.946;2.532;2024-01-15T02:13:01;38.70;;;14.23;;
19854;SDS011;10088;47.946;2.532;2024-01-15T02:15:27;33.97;;;13.37;;
19854;SDS011;10088;47.946;2.532;2024-01-15T02:20:24;20.73;;;8.90;;
19854;SDS011;10088;47.946;2.532;2024-01-15T02:22:49;35.10;;;12.27;;
19854;SDS011;10088;47.946;2.532;2024-01-15T02:25:14;29.20;;;11.10;;
19854;SDS011;10088;47.946;2.532;2024-01-15T02:27:40;36.50;;;13.33;;
19854;SDS011;10088;47.946;2.532;2024-01-15T02:30:06;43.57;;;14.83;;
19854;SDS011;10088;47.946;2.532;2024-01-15T02:32:32;29.27;;;10.90;;
19854;SDS011;10088;47.946;2.532;2024-01-15T02:34:57;28.13;;;12.57;;
19854;SDS011;10088;47.946;2.532;2024-01-15T02:37:23;51.73;;;13.27;;
19854;SDS011;10088;47.946;2.532;2024-01-15T02:39:48;32.00;;;14.47;;
19854;SDS011;10088;47.946;2.532;2024-01-15T02:42:13;37.10;;;14.80;;
19854;SDS011;10088;47.946;2.532;2024-01-15T02:44:39;39.77;;;15.63;;
19854;SDS011;10088;47.946;2.532;2024-01-15T02:47:04;30.13;;;12.67;;
19854;SDS011;10088;47.946;2.532;2024-01-15T02:49:30;37.67;;;14.40;;
19854;SDS011;10088;47.946;2.532;2024-01-15T02:51:56;37.83;;;14.20;;
19854;SDS011;10088;47.946;2.532;2024-01-15T02:54:21;19.33;;;7.77;;
19854;SDS011;10088;47.946;2.532;2024-01-15T02:56:46;26.93;;;9.97;;
19854;SDS011;10088;47.946;2.532;2024-01-15T02:59:12;27.60;;;11.90;;
19854;SDS011;10088;47.946;2.532;2024-01-15T03:01:37;25.33;;;10.67;;
19854;SDS011;10088;47.946;2.532;2024-01-15T03:04:02;19.13;;;9.57;;
19854;SDS011;10088;47.946;2.532;2024-01-15T03:06:27;29.93;;;10.83;;
19854;SDS011;10088;47.946;2.532;2024-01-15T03:08:53;27.33;;;10.10;;
19854;SDS011;10088;47.946;2.532;2024-01-15T03:11:18;25.67;;;10.57;;
19854;SDS011;10088;47.946;2.532;2024-01-15T03:13:43;23.13;;;6.97;;
19854;SDS011;10088;47.946;2.532;2024-01-15T03:16:08;24.40;;;10.57;;
19854;SDS011;10088;47.946;2.532;2024-01-15T03:18:35;25.77;;;8.67;;
19854;SDS011;10088;47.946;2.532;2024-01-15T03:21:00;23.37;;;11.53;;
19854;SDS011;10088;47.946;2.532;2024-01-15T03:23:26;21.93;;;9.23;;
19854;SDS011;10088;47.946;2.532;2024-01-15T03:25:52;25.00;;;11.23;;
19854;SDS011;10088;47.946;2.532;2024-01-15T03:28:17;24.10;;;9.53;;
19854;SDS011;10088;47.946;2.532;2024-01-15T03:30:42;30.03;;;8.63;;
19854;SDS011;10088;47.946;2.532;2024-01-15T03:33:07;29.93;;;10.37;;
19854;SDS011;10088;47.946;2.532;2024-01-15T03:35:33;42.63;;;13.10;;
19854;SDS011;10088;47.946;2.532;2024-01-15T03:37:58;24.97;;;10.37;;
19854;SDS011;10088;47.946;2.532;2024-01-15T03:40:23;27.17;;;13.10;;
19854;SDS011;10088;47.946;2.532;2024-01-15T03:42:48;28.63;;;12.67;;
19854;SDS011;10088;47.946;2.532;2024-01-15T03:45:14;31.27;;;13.10;;
19854;SDS011;10088;47.946;2.532;2024-01-15T03:47:39;31.57;;;12.77;;
19854;SDS011;10088;47.946;2.532;2024-01-15T03:50:05;29.67;;;11.97;;
19854;SDS011;10088;47.946;2.532;2024-01-15T03:52:30;25.37;;;9.67;;
19854;SDS011;10088;47.946;2.532;2024-01-15T03:54:55;31.17;;;11.63;;
19854;SDS011;10088;47.946;2.532;2024-01-15T03:57:21;33.77;;;13.00;;
19854;SDS011;10088;47.946;2.532;2024-01-15T03:59:46;40.50;;;17.50;;
19854;SDS011;10088;47.946;2.532;2024-01-15T04:02:12;22.00;;;11.03;;
19854;SDS011;10088;47.946;2.532;2024-01-15T04:04:40;26.30;;;9.50;;
19854;SDS011;10088;47.946;2.532;2024-01-15T04:07:06;26.87;;;11.00;;
19854;SDS011;10088;47.946;2.532;2024-01-15T04:09:31;24.50;;;10.20;;
19854;SDS011;10088;47.946;2.532;2024-01-15T04:11:56;19.80;;;9.47;;
19854;SDS011;10088;47.946;2.532;2024-01-15T04:14:21;37.13;;;14.90;;
19854;SDS011;10088;47.946;2.532;2024-01-15T04:16:47;19.90;;;7.90;;
19854;SDS011;10088;47.946;2.532;2024-01-15T04:19:12;19.67;;;9.63;;
19854;SDS011;10088;47.946;2.532;2024-01-15T04:21:37;25.20;;;10.57;;
19854;SDS011;10088;47.946;2.532;2024-01-15T04:24:03;10.77;;;5.90;;
19854;SDS011;10088;47.946;2.532;2024-01-15T04:26:29;27.07;;;10.20;;
19854;SDS011;10088;47.946;2.532;2024-01-15T04:28:54;24.33;;;9.13;;
19854;SDS011;10088;47.946;2.532;2024-01-15T04:31:23;19.80;;;9.30;;
19854;SDS011;10088;47.946;2.532;2024-01-15T04:33:48;30.07;;;14.87;;
19854;SDS011;10088;47.946;2.532;2024-01-15T04:36:14;16.63;;;8.20;;
19854;SDS011;10088;47.946;2.532;2024-01-15T04:38:39;28.57;;;9.77;;
19854;SDS011;10088;47.946;2.532;2024-01-15T04:41:04;23.50;;;9.03;;
19854;SDS011;10088;47.946;2.532;2024-01-15T04:43:29;27.83;;;11.53;;
19854;SDS011;10088;47.946;2.532;2024-01-15T04:45:55;30.20;;;11.50;;
19854;SDS011;10088;47.946;2.532;2024-01-15T04:48:20;37.27;;;12.33;;
19854;SDS011;10088;47.946;2.532;2024-01-15T04:50:47;14.90;;;7.97;;
19854;SDS011;10088;47.946;2.532;2024-01-15T04:53:13;33.00;;;12.57;;
19854;SDS011;10088;47.946;2.532;2024-01-15T04:55:38;25.03;;;9.77;;
19854;SDS011;10088;47.946;2.532;2024-01-15T04:58:04;28.67;;;11.33;;
19854;SDS011;10088;47.946;2.532;2024-01-15T05:00:29;24.40;;;9.23;;
19854;SDS011;10088;47.946;2.532;2024-01-15T05:02:54;20.20;;;8.03;;
19854;SDS011;10088;47.946;2.532;2024-01-15T05:05:21;22.87;;;9.03;;
19854;SDS011;10088;47.946;2.532;2024-01-15T05:07:46;24.00;;;8.90;;
19854;SDS011;10088;47.946;2.532;2024-01-15T05:10:11;24.20;;;8.67;;
19854;SDS011;10088;47.946;2.532;2024-01-15T05:12:37;21.80;;;9.57;;
19854;SDS011;10088;47.946;2.532;2024-01-15T05:15:02;16.23;;;7.63;;
19854;SDS011;10088;47.946;2.532;2024-01-15T05:17:28;30.13;;;11.53;;
19854;SDS011;10088;47.946;2.532;2024-01-15T05:19:53;15.73;;;7.60;;
19854;SDS011;10088;47.946;2.532;2024-01-15T05:22:18;33.77;;;10.43;;
19854;SDS011;10088;47.946;2.532;2024-01-15T05:24:44;21.60;;;10.07;;
19854;SDS011;10088;47.946;2.532;2024-01-15T05:27:09;17.73;;;8.53;;
19854;SDS011;10088;47.946;2.532;2024-01-15T05:29:34;25.83;;;10.93;;
19854;SDS011;10088;47.946;2.532;2024-01-15T05:31:59;18.10;;;10.03;;
19854;SDS011;10088;47.946;2.532;2024-01-15T05:34:25;32.00;;;11.73;;
19854;SDS011;10088;47.946;2.532;2024-01-15T05:36:50;26.40;;;10.63;;
19854;SDS011;10088;47.946;2.532;2024-01-15T05:39:15;32.60;;;13.10;;
19854;SDS011;10088;47.946;2.532;2024-01-15T05:41:40;41.97;;;16.67;;
19854;SDS011;10088;47.946;2.532;2024-01-15T05:44:06;25.40;;;11.17;;
19854;SDS011;10088;47.946;2.532;2024-01-15T05:46:31;22.03;;;9.70;;
19854;SDS011;10088;47.946;2.532;2024-01-15T05:48:56;21.60;;;9.83;;
19854;SDS011;10088;47.946;2.532;2024-01-15T05:51:22;30.93;;;15.30;;
19854;SDS011;10088;47.946;2.532;2024-01-15T05:53:47;31.87;;;15.13;;
19854;SDS011;10088;47.946;2.532;2024-01-15T05:56:12;21.47;;;9.37;;
19854;SDS011;10088;47.946;2.532;2024-01-15T05:58:37;22.93;;;9.47;;
19854;SDS011;10088;47.946;2.532;2024-01-15T06:01:03;31.47;;;15.37;;
19854;SDS011;10088;47.946;2.532;2024-01-15T06:03:29;24.67;;;11.90;;
19854;SDS011;10088;47.946;2.532;2024-01-15T06:05:54;28.60;;;12.30;;
19854;SDS011;10088;47.946;2.532;2024-01-15T06:08:19;26.77;;;11.60;;
19854;SDS011;10088;47.946;2.532;2024-01-15T06:10:46;27.83;;;11.57;;
19854;SDS011;10088;47.946;2.532;2024-01-15T06:13:11;25.27;;;11.60;;
19854;SDS011;10088;47.946;2.532;2024-01-15T06:15:36;34.03;;;13.30;;
19854;SDS011;10088;47.946;2.532;2024-01-15T06:18:01;24.47;;;10.57;;
19854;SDS011;10088;47.946;2.532;2024-01-15T06:20:27;33.37;;;11.33;;
19854;SDS011;10088;47.946;2.532;2024-01-15T06:22:52;27.87;;;12.27;;
19854;SDS011;10088;47.946;2.532;2024-01-15T06:25:18;34.63;;;14.13;;
19854;SDS011;10088;47.946;2.532;2024-01-15T06:27:43;30.50;;;13.50;;
19854;SDS011;10088;47.946;2.532;2024-01-15T06:30:09;32.50;;;14.67;;
19854;SDS011;10088;47.946;2.532;2024-01-15T06:32:34;44.40;;;21.47;;
19854;SDS011;10088;47.946;2.532;2024-01-15T06:34:59;35.63;;;16.60;;
19854;SDS011;10088;47.946;2.532;2024-01-15T06:37:25;33.17;;;14.07;;
19854;SDS011;10088;47.946;2.532;2024-01-15T06:39:50;34.00;;;13.63;;
19854;SDS011;10088;47.946;2.532;2024-01-15T06:42:15;25.57;;;12.67;;
19854;SDS011;10088;47.946;2.532;2024-01-15T06:44:41;34.40;;;14.50;;
19854;SDS011;10088;47.946;2.532;2024-01-15T06:47:06;30.03;;;13.60;;
19854;SDS011;10088;47.946;2.532;2024-01-15T06:49:31;23.17;;;10.77;;
19854;SDS011;10088;47.946;2.532;2024-01-15T06:51:56;21.70;;;9.73;;
19854;SDS011;10088;47.946;2.532;2024-01-15T06:54:22;28.30;;;11.30;;
19854;SDS011;10088;47.946;2.532;2024-01-15T06:56:48;39.60;;;15.17;;
19854;SDS011;10088;47.946;2.532;2024-01-15T06:59:13;31.30;;;11.23;;
19854;SDS011;10088;47.946;2.532;2024-01-15T07:01:39;29.30;;;11.50;;
19854;SDS011;10088;47.946;2.532;2024-01-15T07:04:04;38.00;;;16.80;;
19854;SDS011;10088;47.946;2.532;2024-01-15T07:06:29;32.00;;;13.20;;
19854;SDS011;10088;47.946;2.532;2024-01-15T07:08:55;24.07;;;9.53;;
19854;SDS011;10088;47.946;2.532;2024-01-15T07:11:21;36.30;;;14.97;;
19854;SDS011;10088;47.946;2.532;2024-01-15T07:13:46;23.60;;;10.57;;
19854;SDS011;10088;47.946;2.532;2024-01-15T07:16:11;21.33;;;10.67;;
19854;SDS011;10088;47.946;2.532;2024-01-15T07:18:37;25.60;;;11.57;;
19854;SDS011;10088;47.946;2.532;2024-01-15T07:21:02;30.97;;;12.93;;
19854;SDS011;10088;47.946;2.532;2024-01-15T07:23:27;32.33;;;11.97;;
19854;SDS011;10088;47.946;2.532;2024-01-15T07:25:53;35.23;;;13.20;;
19854;SDS011;10088;47.946;2.532;2024-01-15T07:28:19;28.57;;;11.53;;
19854;SDS011;10088;47.946;2.532;2024-01-15T07:30:44;36.17;;;12.73;;
19854;SDS011;10088;47.946;2.532;2024-01-15T07:33:10;28.07;;;10.80;;
19854;SDS011;10088;47.946;2.532;2024-01-15T07:35:35;32.60;;;13.17;;
19854;SDS011;10088;47.946;2.532;2024-01-15T07:38:01;35.47;;;14.03;;
19854;SDS011;10088;47.946;2.532;2024-01-15T07:40:26;27.13;;;11.77;;
19854;SDS011;10088;47.946;2.532;2024-01-15T07:42:51;31.23;;;12.67;;
19854;SDS011;10088;47.946;2.532;2024-01-15T07:45:17;30.30;;;12.10;;
19854;SDS011;10088;47.946;2.532;2024-01-15T07:47:43;30.93;;;13.73;;
19854;SDS011;10088;47.946;2.532;2024-01-15T07:50:08;34.50;;;13.73;;
19854;SDS011;10088;47.946;2.532;2024-01-15T07:52:33;31.57;;;12.90;;
19854;SDS011;10088;47.946;2.532;2024-01-15T07:54:59;35.07;;;13.93;;
19854;SDS011;10088;47.946;2.532;2024-01-15T07:57:28;28.63;;;11.67;;
19854;SDS011;10088;47.946;2.532;2024-01-15T07:59:54;27.87;;;12.07;;
19854;SDS011;10088;47.946;2.532;2024-01-15T08:02:19;30.80;;;13.07;;
19854;SDS011;10088;47.946;2.532;2024-01-15T08:04:44;34.60;;;12.80;;
19854;SDS011;10088;47.946;2.532;2024-01-15T08:07:10;35.73;;;12.73;;
19854;SDS011;10088;47.946;2.532;2024-01-15T08:09:36;39.67;;;15.03;;
19854;SDS011;10088;47.946;2.532;2024-01-15T08:12:01;29.77;;;12.97;;
19854;SDS011;10088;47.946;2.532;2024-01-15T08:14:26;32.60;;;14.40;;
19854;SDS011;10088;47.946;2.532;2024-01-15T08:16:52;26.43;;;12.00;;
19854;SDS011;10088;47.946;2.532;2024-01-15T08:19:17;24.07;;;11.27;;
19854;SDS011;10088;47.946;2.532;2024-01-15T08:21:42;26.57;;;12.47;;
19854;SDS011;10088;47.946;2.532;2024-01-15T08:24:08;37.60;;;14.37;;
19854;SDS011;10088;47.946;2.532;2024-01-15T08:26:33;34.10;;;14.17;;
19854;SDS011;10088;47.946;2.532;2024-01-15T08:28:58;42.47;;;15.57;;
19854;SDS011;10088;47.946;2.532;2024-01-15T08:31:24;38.67;;;14.57;;
19854;SDS011;10088;47.946;2.532;2024-01-15T08:33:49;30.43;;;14.30;;
19854;SDS011;10088;47.946;2.532;2024-01-15T08:36:14;40.33;;;14.87;;
19854;SDS011;10088;47.946;2.532;2024-01-15T08:38:40;35.70;;;14.37;;
19854;SDS011;10088;47.946;2.532;2024-01-15T08:41:05;34.47;;;13.83;;
19854;SDS011;10088;47.946;2.532;2024-01-15T08:43:30;33.43;;;13.37;;
19854;SDS011;10088;47.946;2.532;2024-01-15T08:45:56;33.57;;;14.57;;
19854;SDS011;10088;47.946;2.532;2024-01-15T08:48:21;40.40;;;14.27;;
19854;SDS011;10088;47.946;2.532;2024-01-15T08:50:47;39.70;;;14.27;;
19854;SDS011;10088;47.946;2.532;2024-01-15T08:53:12;33.63;;;14.40;;
19854;SDS011;10088;47.946;2.532;2024-01-15T08:55:37;37.53;;;15.30;;
19854;SDS011;10088;47.946;2.532;2024-01-15T08:58:03;31.83;;;13.07;;
19854;SDS011;10088;47.946;2.532;2024-01-15T09:00:28;32.93;;;14.10;;
19854;SDS011;10088;47.946;2.532;2024-01-15T09:02:54;30.40;;;13.17;;
19854;SDS011;10088;47.946;2.532;2024-01-15T09:05:19;36.10;;;14.13;;
19854;SDS011;10088;47.946;2.532;2024-01-15T09:07:44;31.83;;;11.90;;
19854;SDS011;10088;47.946;2.532;2024-01-15T09:10:11;33.13;;;12.43;;
19854;SDS011;10088;47.946;2.532;2024-01-15T09:12:36;35.40;;;13.13;;
19854;SDS011;10088;47.946;2.532;2024-01-15T09:15:01;34.20;;;15.17;;
19854;SDS011;10088;47.946;2.532;2024-01-15T09:17:29;28.07;;;12.50;;
19854;SDS011;10088;47.946;2.532;2024-01-15T09:19:54;35.03;;;14.57;;
19854;SDS011;10088;47.946;2.532;2024-01-15T09:22:20;30.27;;;13.53;;
19854;SDS011;10088;47.946;2.532;2024-01-15T09:24:45;32.10;;;13.77;;
19854;SDS011;10088;47.946;2.532;2024-01-15T09:27:11;31.67;;;14.07;;
19854;SDS011;10088;47.946;2.532;2024-01-15T09:29:36;33.07;;;14.00;;
19854;SDS011;10088;47.946;2.532;2024-01-15T09:32:05;27.63;;;12.43;;
19854;SDS011;10088;47.946;2.532;2024-01-15T09:34:30;33.07;;;14.40;;
19854;SDS011;10088;47.946;2.532;2024-01-15T09:36:56;39.03;;;14.73;;
19854;SDS011;10088;47.946;2.532;2024-01-15T09:39:21;35.47;;;14.97;;
19854;SDS011;10088;47.946;2.532;2024-01-15T09:41:48;32.93;;;13.93;;
19854;SDS011;10088;47.946;2.532;2024-01-15T09:44:14;33.53;;;13.17;;
19854;SDS011;10088;47.946;2.532;2024-01-15T09:46:41;32.37;;;13.50;;
19854;SDS011;10088;47.946;2.532;2024-01-15T09:49:08;30.10;;;13.37;;
19854;SDS011;10088;47.946;2.532;2024-01-15T09:51:34;33.13;;;14.93;;
19854;SDS011;10088;47.946;2.532;2024-01-15T09:54:00;32.53;;;14.23;;
19854;SDS011;10088;47.946;2.532;2024-01-15T09:56:26;31.93;;;14.23;;
19854;SDS011;10088;47.946;2.532;2024-01-15T09:58:51;28.73;;;13.73;;
19854;SDS011;10088;47.946;2.532;2024-01-15T10:01:17;31.33;;;13.77;;
19854;SDS011;10088;47.946;2.532;2024-01-15T10:03:45;29.60;;;13.83;;
19854;SDS011;10088;47.946;2.532;2024-01-15T10:06:11;29.17;;;13.70;;
19854;SDS011;10088;47.946;2.532;2024-01-15T10:08:37;23.90;;;9.97;;
19854;SDS011;10088;47.946;2.532;2024-01-15T10:11:02;29.80;;;11.57;;
19854;SDS011;10088;47.946;2.532;2024-01-15T10:13:30;28.07;;;13.37;;
19854;SDS011;10088;47.946;2.532;2024-01-15T10:15:55;26.87;;;14.80;;
19854;SDS011;10088;47.946;2.532;2024-01-15T10:18:20;33.83;;;14.17;;
19854;SDS011;10088;47.946;2.532;2024-01-15T10:20:46;32.40;;;15.03;;
19854;SDS011;10088;47.946;2.532;2024-01-15T10:23:12;29.77;;;13.60;;
19854;SDS011;10088;47.946;2.532;2024-01-15T10:25:37;28.33;;;13.57;;
19854;SDS011;10088;47.946;2.532;2024-01-15T10:28:03;32.80;;;15.53;;
19854;SDS011;10088;47.946;2.532;2024-01-15T10:30:28;31.47;;;14.37;;
19854;SDS011;10088;47.946;2.532;2024-01-15T10:32:57;31.50;;;13.43;;
19854;SDS011;10088;47.946;2.532;2024-01-15T10:35:23;26.30;;;13.37;;
19854;SDS011;10088;47.946;2.532;2024-01-15T10:37:51;31.57;;;14.50;;
19854;SDS011;10088;47.946;2.532;2024-01-15T10:40:17;24.20;;;12.40;;
19854;SDS011;10088;47.946;2.532;2024-01-15T10:42:43;32.13;;;14.50;;
19854;SDS011;10088;47.946;2.532;2024-01-15T10:45:09;28.60;;;14.00;;
19854;SDS011;10088;47.946;2.532;2024-01-15T10:47:34;29.67;;;14.27;;
19854;SDS011;10088;47.946;2.532;2024-01-15T10:50:00;30.37;;;12.07;;
19854;SDS011;10088;47.946;2.532;2024-01-15T10:52:26;30.97;;;13.50;;
19854;SDS011;10088;47.946;2.532;2024-01-15T10:54:52;32.73;;;14.00;;
19854;SDS011;10088;47.946;2.532;2024-01-15T10:57:18;30.27;;;14.47;;
19854;SDS011;10088;47.946;2.532;2024-01-15T10:59:44;24.40;;;12.70;;
19854;SDS011;10088;47.946;2.532;2024-01-15T11:02:09;30.03;;;14.63;;
19854;SDS011;10088;47.946;2.532;2024-01-15T11:04:35;29.77;;;15.23;;
19854;SDS011;10088;47.946;2.532;2024-01-15T11:07:05;29.27;;;14.03;;
19854;SDS011;10088;47.946;2.532;2024-01-15T11:09:40;23.90;;;13.37;;
19854;SDS011;10088;47.946;2.532;2024-01-15T11:12:23;31.17;;;15.10;;
19854;SDS011;10088;47.946;2.532;2024-01-15T11:14:52;24.90;;;13.53;;
19854;SDS011;10088;47.946;2.532;2024-01-15T11:17:59;29.67;;;14.17;;
19854;SDS011;10088;47.946;2.532;2024-01-15T11:20:37;29.47;;;13.57;;
19854;SDS011;10088;47.946;2.532;2024-01-15T11:23:10;26.17;;;13.47;;
19854;SDS011;10088;47.946;2.532;2024-01-15T11:25:51;28.20;;;15.13;;
19854;SDS011;10088;47.946;2.532;2024-01-15T11:28:46;30.13;;;14.43;;
19854;SDS011;10088;47.946;2.532;2024-01-15T11:31:18;26.13;;;14.30;;
19854;SDS011;10088;47.946;2.532;2024-01-15T11:33:52;24.37;;;12.90;;
19854;SDS011;10088;47.946;2.532;2024-01-15T11:37:03;29.57;;;14.10;;
19854;SDS011;10088;47.946;2.532;2024-01-15T11:42:10;25.23;;;14.30;;
19854;SDS011;10088;47.946;2.532;2024-01-15T11:45:06;22.03;;;11.47;;
19854;SDS011;10088;47.946;2.532;2024-01-15T11:50:23;20.50;;;11.73;;
19854;SDS011;10088;47.946;2.532;2024-01-15T11:53:01;20.67;;;12.37;;
19854;SDS011;10088;47.946;2.532;2024-01-15T11:55:39;22.40;;;11.63;;
19854;SDS011;10088;47.946;2.532;2024-01-15T11:58:18;23.90;;;12.80;;
19854;SDS011;10088;47.946;2.532;2024-01-15T12:00:51;25.10;;;10.73;;
19854;SDS011;10088;47.946;2.532;2024-01-15T12:03:31;22.83;;;11.87;;
19854;SDS011;10088;47.946;2.532;2024-01-15T12:06:16;21.97;;;12.27;;
19854;SDS011;10088;47.946;2.532;2024-01-15T12:09:05;22.00;;;13.17;;
19854;SDS011;10088;47.946;2.532;2024-01-15T12:12:03;21.37;;;11.93;;
19854;SDS011;10088;47.946;2.532;2024-01-15T12:14:49;22.67;;;11.93;;
19854;SDS011;10088;47.946;2.532;2024-01-15T12:17:34;18.03;;;10.17;;
19854;SDS011;10088;47.946;2.532;2024-01-15T12:20:09;20.70;;;11.27;;
19854;SDS011;10088;47.946;2.532;2024-01-15T12:23:00;18.60;;;10.30;;
19854;SDS011;10088;47.946;2.532;2024-01-15T12:25:36;20.20;;;12.00;;
19854;SDS011;10088;47.946;2.532;2024-01-15T12:28:02;19.27;;;10.13;;
19854;SDS011;10088;47.946;2.532;2024-01-15T12:30:28;18.00;;;10.60;;
19854;SDS011;10088;47.946;2.532;2024-01-15T12:32:54;19.03;;;11.37;;
19854;SDS011;10088;47.946;2.532;2024-01-15T12:35:19;17.60;;;11.27;;
19854;SDS011;10088;47.946;2.532;2024-01-15T12:37:44;22.20;;;10.07;;
19854;SDS011;10088;47.946;2.532;2024-01-15T12:40:13;15.87;;;9.83;;
19854;SDS011;10088;47.946;2.532;2024-01-15T12:42:39;21.37;;;10.40;;
19854;SDS011;10088;47.946;2.532;2024-01-15T12:45:11;17.57;;;10.37;;
19854;SDS011;10088;47.946;2.532;2024-01-15T12:47:37;19.03;;;10.63;;
19854;SDS011;10088;47.946;2.532;2024-01-15T12:50:05;16.93;;;9.73;;
19854;SDS011;10088;47.946;2.532;2024-01-15T12:52:31;14.97;;;9.40;;
19854;SDS011;10088;47.946;2.532;2024-01-15T12:54:57;14.23;;;9.60;;
19854;SDS011;10088;47.946;2.532;2024-01-15T12:57:22;18.20;;;10.73;;
19854;SDS011;10088;47.946;2.532;2024-01-15T12:59:48;13.07;;;8.43;;
19854;SDS011;10088;47.946;2.532;2024-01-15T13:02:18;16.87;;;8.83;;
19854;SDS011;10088;47.946;2.532;2024-01-15T13:04:43;14.10;;;8.43;;
19854;SDS011;10088;47.946;2.532;2024-01-15T13:07:08;12.27;;;7.77;;
19854;SDS011;10088;47.946;2.532;2024-01-15T13:09:34;11.27;;;7.27;;
19854;SDS011;10088;47.946;2.532;2024-01-15T13:12:00;10.93;;;7.87;;
19854;SDS011;10088;47.946;2.532;2024-01-15T13:14:26;8.43;;;6.30;;
19854;SDS011;10088;47.946;2.532;2024-01-15T13:16:51;12.10;;;6.83;;
19854;SDS011;10088;47.946;2.532;2024-01-15T13:19:17;9.33;;;5.97;;
19854;SDS011;10088;47.946;2.532;2024-01-15T13:21:43;8.33;;;5.27;;
19854;SDS011;10088;47.946;2.532;2024-01-15T13:24:09;9.43;;;5.33;;
19854;SDS011;10088;47.946;2.532;2024-01-15T13:26:35;8.03;;;5.60;;
19854;SDS011;10088;47.946;2.532;2024-01-15T13:29:02;7.93;;;5.20;;
19854;SDS011;10088;47.946;2.532;2024-01-15T13:31:28;6.57;;;4.67;;
19854;SDS011;10088;47.946;2.532;2024-01-15T13:33:53;6.73;;;5.43;;
19854;SDS011;10088;47.946;2.532;2024-01-15T13:36:20;8.47;;;5.13;;
19854;SDS011;10088;47.946;2.532;2024-01-15T13:38:46;7.10;;;5.07;;
19854;SDS011;10088;47.946;2.532;2024-01-15T13:41:11;8.63;;;5.20;;
19854;SDS011;10088;47.946;2.532;2024-01-15T13:43:37;6.43;;;4.67;;
19854;SDS011;10088;47.946;2.532;2024-01-15T13:46:02;5.60;;;3.97;;
19854;SDS011;10088;47.946;2.532;2024-01-15T13:48:29;6.33;;;4.00;;
19854;SDS011;10088;47.946;2.532;2024-01-15T13:50:56;6.03;;;4.00;;
19854;SDS011;10088;47.946;2.532;2024-01-15T13:53:23;6.87;;;4.37;;
19854;SDS011;10088;47.946;2.532;2024-01-15T13:55:48;4.53;;;3.73;;
19854;SDS011;10088;47.946;2.532;2024-01-15T13:58:14;5.40;;;3.90;;
19854;SDS011;10088;47.946;2.532;2024-01-15T14:00:39;5.63;;;3.83;;
19854;SDS011;10088;47.946;2.532;2024-01-15T14:03:04;4.97;;;3.80;;
19854;SDS011;10088;47.946;2.532;2024-01-15T14:05:30;6.80;;;3.90;;
19854;SDS011;10088;47.946;2.532;2024-01-15T14:07:55;8.13;;;4.13;;
19854;SDS011;10088;47.946;2.532;2024-01-15T14:10:20;3.90;;;3.03;;
19854;SDS011;10088;47.946;2.532;2024-01-15T14:12:46;5.03;;;3.70;;
19854;SDS011;10088;47.946;2.532;2024-01-15T14:15:11;6.73;;;3.80;;
19854;SDS011;10088;47.946;2.532;2024-01-15T14:17:37;5.07;;;3.13;;
19854;SDS011;10088;47.946;2.532;2024-01-15T14:20:02;6.10;;;3.80;;
19854;SDS011;10088;47.946;2.532;2024-01-15T14:22:30;5.03;;;3.40;;
19854;SDS011;10088;47.946;2.532;2024-01-15T14:24:55;5.37;;;3.53;;
19854;SDS011;10088;47.946;2.532;2024-01-15T14:27:20;4.53;;;2.70;;
19854;SDS011;10088;47.946;2.532;2024-01-15T14:29:46;4.13;;;2.23;;
19854;SDS011;10088;47.946;2.532;2024-01-15T14:32:11;3.40;;;2.20;;